sensor_id;sensor_type;location;lat;lon;timestamp;temperature;humidity
43185;DHT22;28803;52.308;19.096;2024-02-15T00:02:27;6.10;99.90
43185;DHT22;28803;52.308;19.096;2024-02-15T00:04:55;6.10;1.00
43185;DHT22;28803;52.308;19.096;2024-02-15T00:07:23;6.10;1.00
43185;DHT22;28803;52.308;19.096;2024-02-15T00:09:51;6.20;1.00
43185;DHT22;28803;52.308;19.096;2024-02-15T00:12:18;6.10;99.90
43185;DHT22;28803;52.308;19.096;2024-02-15T00:14:46;6.10;99.90
43185;DHT22;28803;52.308;19.096;2024-02-15T00:17:13;6.10;99.90
43185;DHT22;28803;52.308;19.096;2024-02-15T00:19:40;6.10;99.90
43185;DHT22;28803;52.308;19.096;2024-02-15T00:22:09;6.00;99.90
43185;DHT22;28803;52.308;19.096;2024-02-15T00:24:37;6.00;1.00
43185;DHT22;28803;52.308;19.096;2024-02-15T00:27:09;6.00;1.00
43185;DHT22;28803;52.308;19.096;2024-02-15T00:29:38;6.00;1.00
43185;DHT22;28803;52.308;19.096;2024-02-15T00:32:08;6.00;99.90
43185;DHT22;28803;52.308;19.096;2024-02-15T00:34:36;6.00;99.90
43185;DHT22;28803;52.308;19.096;2024-02-15T00:37:06;5.90;99.90
43185;DHT22;28803;52.308;19.096;2024-02-15T00:39:33;5.80;99.90
43185;DHT22;28803;52.308;19.096;2024-02-15T00:42:01;5.70;1.00
43185;DHT22;28803;52.308;19.096;2024-02-15T00:44:29;5.70;1.00
43185;DHT22;28803;52.308;19.096;2024-02-15T00:46:56;5.60;1.00
43185;DHT22;28803;52.308;19.096;2024-02-15T00:49:24;5.50;1.00
43185;DHT22;28803;52.308;19.096;2024-02-15T00:51:55;5.40;30.00
43185;DHT22;28803;52.308;19.096;2024-02-15T00:54:22;5.40;95.20
43185;DHT22;28803;52.308;19.096;2024-02-15T00:56:51;5.40;90.60
43185;DHT22;28803;52.308;19.096;2024-02-15T00:59:18;5.40;99.90
43185;DHT22;28803;52.308;19.096;2024-02-15T01:01:46;5.40;99.90
43185;DHT22;28803;52.308;19.096;2024-02-15T01:04:15;5.40;99.90
43185;DHT22;28803;52.308;19.096;2024-02-15T01:06:42;5.30;99.90
43185;DHT22;28803;52.308;19.096;2024-02-15T01:09:10;5.30;99.90
43185;DHT22;28803;52.308;19.096;2024-02-15T01:11:37;5.30;99.90
43185;DHT22;28803;52.308;19.096;2024-02-15T01:14:04;5.30;99.90
43185;DHT22;28803;52.308;19.096;2024-02-15T01:16:33;5.30;99.90
43185;DHT22;28803;52.308;19.096;2024-02-15T01:19:02;5.40;99.90
43185;DHT22;28803;52.308;19.096;2024-02-15T01:21:30;5.40;99.90
43185;DHT22;28803;52.308;19.096;2024-02-15T01:24:00;5.40;99.90
43185;DHT22;28803;52.308;19.096;2024-02-15T01:26:34;5.40;99.90
43185;DHT22;28803;52.308;19.096;2024-02-15T01:29:01;5.30;99.90
43185;DHT22;28803;52.308;19.096;2024-02-15T01:31:30;5.40;99.90
43185;DHT22;28803;52.308;19.096;2024-02-15T01:33:57;5.40;1.00
43185;DHT22;28803;52.308;19.096;2024-02-15T01:36:25;5.40;1.00
43185;DHT22;28803;52.308;19.096;2024-02-15T01:38:53;5.40;1.00
43185;DHT22;28803;52.308;19.096;2024-02-15T01:41:20;5.40;1.00
43185;DHT22;28803;52.308;19.096;2024-02-15T01:43:47;5.40;1.00
43185;DHT22;28803;52.308;19.096;2024-02-15T01:46:17;5.50;1.00
43185;DHT22;28803;52.308;19.096;2024-02-15T01:48:45;5.50;1.00
43185;DHT22;28803;52.308;19.096;2024-02-15T01:51:13;5.60;1.00
43185;DHT22;28803;52.308;19.096;2024-02-15T01:53:43;5.60;1.00
43185;DHT22;28803;52.308;19.096;2024-02-15T01:56:14;5.60;1.00
43185;DHT22;28803;52.308;19.096;2024-02-15T01:58:42;5.60;1.00
43185;DHT22;28803;52.308;19.096;2024-02-15T02:01:13;5.60;1.00
43185;DHT22;28803;52.308;19.096;2024-02-15T02:03:41;5.70;1.00
43185;DHT22;28803;52.308;19.096;2024-02-15T02:06:09;5.70;1.00
43185;DHT22;28803;52.308;19.096;2024-02-15T02:08:36;5.70;1.00
43185;DHT22;28803;52.308;19.096;2024-02-15T02:11:04;5.70;1.00
43185;DHT22;28803;52.308;19.096;2024-02-15T02:13:31;5.70;1.00
43185;DHT22;28803;52.308;19.096;2024-02-15T02:15:58;5.70;1.00
43185;DHT22;28803;52.308;19.096;2024-02-15T02:18:27;5.80;1.00
43185;DHT22;28803;52.308;19.096;2024-02-15T02:20:54;5.80;1.00
43185;DHT22;28803;52.308;19.096;2024-02-15T02:23:25;5.80;1.00
43185;DHT22;28803;52.308;19.096;2024-02-15T02:25:54;5.90;1.00
43185;DHT22;28803;52.308;19.096;2024-02-15T02:28:22;5.90;1.00
43185;DHT22;28803;52.308;19.096;2024-02-15T02:30:50;5.90;1.00
43185;DHT22;28803;52.308;19.096;2024-02-15T02:33:17;5.80;1.00
43185;DHT22;28803;52.308;19.096;2024-02-15T02:35:47;5.80;1.00
43185;DHT22;28803;52.308;19.096;2024-02-15T02:38:16;5.80;1.00
43185;DHT22;28803;52.308;19.096;2024-02-15T02:40:43;5.80;1.00
43185;DHT22;28803;52.308;19.096;2024-02-15T02:43:10;5.90;1.00
43185;DHT22;28803;52.308;19.096;2024-02-15T02:45:38;5.80;1.00
43185;DHT22;28803;52.308;19.096;2024-02-15T02:48:05;5.90;1.00
43185;DHT22;28803;52.308;19.096;2024-02-15T02:50:33;5.90;1.00
43185;DHT22;28803;52.308;19.096;2024-02-15T02:53:00;5.90;1.00
43185;DHT22;28803;52.308;19.096;2024-02-15T02:55:27;6.00;1.00
43185;DHT22;28803;52.308;19.096;2024-02-15T02:57:55;6.00;1.00
43185;DHT22;28803;52.308;19.096;2024-02-15T03:00:22;6.00;1.00
43185;DHT22;28803;52.308;19.096;2024-02-15T03:02:50;6.00;1.00
43185;DHT22;28803;52.308;19.096;2024-02-15T03:05:17;6.00;1.00
43185;DHT22;28803;52.308;19.096;2024-02-15T03:07:48;6.00;1.00
43185;DHT22;28803;52.308;19.096;2024-02-15T03:10:28;6.10;1.00
43185;DHT22;28803;52.308;19.096;2024-02-15T03:12:55;6.00;1.00
43185;DHT22;28803;52.308;19.096;2024-02-15T03:15:22;6.00;2.10
43185;DHT22;28803;52.308;19.096;2024-02-15T03:17:50;6.00;5.60
43185;DHT22;28803;52.308;19.096;2024-02-15T03:20:18;5.90;8.00
43185;DHT22;28803;52.308;19.096;2024-02-15T03:23:02;5.90;15.20
43185;DHT22;28803;52.308;19.096;2024-02-15T03:25:29;5.90;24.10
43185;DHT22;28803;52.308;19.096;2024-02-15T03:27:58;5.90;30.80
43185;DHT22;28803;52.308;19.096;2024-02-15T03:30:26;6.00;45.90
43185;DHT22;28803;52.308;19.096;2024-02-15T03:32:54;6.00;55.50
43185;DHT22;28803;52.308;19.096;2024-02-15T03:35:24;6.00;66.90
43185;DHT22;28803;52.308;19.096;2024-02-15T03:37:52;6.00;66.10
43185;DHT22;28803;52.308;19.096;2024-02-15T03:40:20;6.00;69.40
43185;DHT22;28803;52.308;19.096;2024-02-15T03:42:48;6.00;79.00
43185;DHT22;28803;52.308;19.096;2024-02-15T03:45:17;6.00;77.50
43185;DHT22;28803;52.308;19.096;2024-02-15T03:47:45;6.00;77.50
43185;DHT22;28803;52.308;19.096;2024-02-15T03:50:13;6.00;86.80
43185;DHT22;28803;52.308;19.096;2024-02-15T03:52:42;6.00;89.80
43185;DHT22;28803;52.308;19.096;2024-02-15T03:55:10;6.10;97.50
43185;DHT22;28803;52.308;19.096;2024-02-15T03:57:39;6.10;95.90
43185;DHT22;28803;52.308;19.096;2024-02-15T04:00:08;6.10;99.50
43185;DHT22;28803;52.308;19.096;2024-02-15T04:02:38;6.20;99.90
43185;DHT22;28803;52.308;19.096;2024-02-15T04:05:09;6.20;99.90
43185;DHT22;28803;52.308;19.096;2024-02-15T04:07:38;6.20;99.90
43185;DHT22;28803;52.308;19.096;2024-02-15T04:10:06;6.20;99.90
43185;DHT22;28803;52.308;19.096;2024-02-15T04:12:36;6.20;99.90
43185;DHT22;28803;52.308;19.096;2024-02-15T04:15:06;6.20;99.90
43185;DHT22;28803;52.308;19.096;2024-02-15T04:17:41;6.20;99.90
43185;DHT22;28803;52.308;19.096;2024-02-15T04:20:10;6.20;99.90
43185;DHT22;28803;52.308;19.096;2024-02-15T04:22:39;6.10;99.90
43185;DHT22;28803;52.308;19.096;2024-02-15T04:25:10;6.20;99.90
43185;DHT22;28803;52.308;19.096;2024-02-15T04:27:38;6.20;99.90
43185;DHT22;28803;52.308;19.096;2024-02-15T04:30:07;6.20;99.90
43185;DHT22;28803;52.308;19.096;2024-02-15T04:32:35;6.20;99.90
43185;DHT22;28803;52.308;19.096;2024-02-15T04:35:04;6.20;99.90
43185;DHT22;28803;52.308;19.096;2024-02-15T04:37:34;6.20;99.90
43185;DHT22;28803;52.308;19.096;2024-02-15T04:40:04;6.20;99.90
43185;DHT22;28803;52.308;19.096;2024-02-15T04:42:37;6.20;99.90
43185;DHT22;28803;52.308;19.096;2024-02-15T04:45:09;6.20;99.90
43185;DHT22;28803;52.308;19.096;2024-02-15T04:47:41;6.30;99.90
43185;DHT22;28803;52.308;19.096;2024-02-15T04:50:09;6.30;99.90
43185;DHT22;28803;52.308;19.096;2024-02-15T04:52:37;6.30;99.90
43185;DHT22;28803;52.308;19.096;2024-02-15T04:55:04;6.30;99.90
43185;DHT22;28803;52.308;19.096;2024-02-15T04:57:34;6.30;99.90
43185;DHT22;28803;52.308;19.096;2024-02-15T05:00:04;6.40;99.90
43185;DHT22;28803;52.308;19.096;2024-02-15T05:02:40;6.40;99.90
43185;DHT22;28803;52.308;19.096;2024-02-15T05:05:09;6.40;99.90
43185;DHT22;28803;52.308;19.096;2024-02-15T05:07:37;6.40;99.90
43185;DHT22;28803;52.308;19.096;2024-02-15T05:10:07;6.40;99.90
43185;DHT22;28803;52.308;19.096;2024-02-15T05:12:39;6.40;99.90
43185;DHT22;28803;52.308;19.096;2024-02-15T05:15:10;6.40;99.90
43185;DHT22;28803;52.308;19.096;2024-02-15T05:17:40;6.40;99.90
43185;DHT22;28803;52.308;19.096;2024-02-15T05:20:10;6.50;99.90
43185;DHT22;28803;52.308;19.096;2024-02-15T05:22:40;6.50;99.90
43185;DHT22;28803;52.308;19.096;2024-02-15T05:25:15;6.40;99.90
43185;DHT22;28803;52.308;19.096;2024-02-15T05:27:43;6.40;99.90
43185;DHT22;28803;52.308;19.096;2024-02-15T05:30:11;6.40;99.90
43185;DHT22;28803;52.308;19.096;2024-02-15T05:32:40;6.40;99.90
43185;DHT22;28803;52.308;19.096;2024-02-15T05:35:12;6.40;99.90
43185;DHT22;28803;52.308;19.096;2024-02-15T05:37:40;6.40;99.90
43185;DHT22;28803;52.308;19.096;2024-02-15T05:40:07;6.40;99.90
43185;DHT22;28803;52.308;19.096;2024-02-15T05:42:43;6.40;99.90
43185;DHT22;28803;52.308;19.096;2024-02-15T05:47:53;6.40;99.90
43185;DHT22;28803;52.308;19.096;2024-02-15T05:50:22;6.40;99.90
43185;DHT22;28803;52.308;19.096;2024-02-15T05:52:51;6.50;99.90
43185;DHT22;28803;52.308;19.096;2024-02-15T05:55:20;6.50;99.90
43185;DHT22;28803;52.308;19.096;2024-02-15T05:57:47;6.50;99.90
43185;DHT22;28803;52.308;19.096;2024-02-15T06:00:14;6.50;99.90
43185;DHT22;28803;52.308;19.096;2024-02-15T06:02:49;6.60;99.90
43185;DHT22;28803;52.308;19.096;2024-02-15T06:05:18;6.60;99.90
43185;DHT22;28803;52.308;19.096;2024-02-15T06:07:46;6.50;99.90
43185;DHT22;28803;52.308;19.096;2024-02-15T06:10:14;6.60;99.90
43185;DHT22;28803;52.308;19.096;2024-02-15T06:12:43;6.60;99.90
43185;DHT22;28803;52.308;19.096;2024-02-15T06:15:10;6.60;99.90
43185;DHT22;28803;52.308;19.096;2024-02-15T06:17:44;6.50;99.90
43185;DHT22;28803;52.308;19.096;2024-02-15T06:20:13;6.50;99.90
43185;DHT22;28803;52.308;19.096;2024-02-15T06:22:41;6.50;99.90
43185;DHT22;28803;52.308;19.096;2024-02-15T06:25:09;6.50;99.90
43185;DHT22;28803;52.308;19.096;2024-02-15T06:27:38;6.50;99.90
43185;DHT22;28803;52.308;19.096;2024-02-15T06:30:09;6.50;99.90
43185;DHT22;28803;52.308;19.096;2024-02-15T06:32:56;6.50;99.90
43185;DHT22;28803;52.308;19.096;2024-02-15T06:35:53;6.50;99.90
43185;DHT22;28803;52.308;19.096;2024-02-15T06:38:40;6.50;99.90
43185;DHT22;28803;52.308;19.096;2024-02-15T06:41:26;6.50;99.90
43185;DHT22;28803;52.308;19.096;2024-02-15T06:43:55;6.50;99.90
43185;DHT22;28803;52.308;19.096;2024-02-15T06:46:22;6.50;99.90
43185;DHT22;28803;52.308;19.096;2024-02-15T06:48:49;6.60;99.90
43185;DHT22;28803;52.308;19.096;2024-02-15T06:51:17;6.60;99.90
43185;DHT22;28803;52.308;19.096;2024-02-15T06:53:44;6.60;99.90
43185;DHT22;28803;52.308;19.096;2024-02-15T06:56:12;6.70;99.90
43185;DHT22;28803;52.308;19.096;2024-02-15T06:58:41;6.70;99.90
43185;DHT22;28803;52.308;19.096;2024-02-15T07:01:08;6.70;99.90
43185;DHT22;28803;52.308;19.096;2024-02-15T07:03:36;6.70;99.90
43185;DHT22;28803;52.308;19.096;2024-02-15T07:06:04;6.80;99.90
43185;DHT22;28803;52.308;19.096;2024-02-15T07:08:45;6.90;99.90
43185;DHT22;28803;52.308;19.096;2024-02-15T07:11:14;6.90;99.90
43185;DHT22;28803;52.308;19.096;2024-02-15T07:13:42;7.00;99.90
43185;DHT22;28803;52.308;19.096;2024-02-15T07:16:10;7.00;99.90
43185;DHT22;28803;52.308;19.096;2024-02-15T07:18:38;7.00;99.90
43185;DHT22;28803;52.308;19.096;2024-02-15T07:21:06;7.00;99.90
43185;DHT22;28803;52.308;19.096;2024-02-15T07:23:38;7.10;99.90
43185;DHT22;28803;52.308;19.096;2024-02-15T07:26:06;7.10;99.90
43185;DHT22;28803;52.308;19.096;2024-02-15T07:28:34;7.10;99.90
43185;DHT22;28803;52.308;19.096;2024-02-15T07:31:01;7.10;99.90
43185;DHT22;28803;52.308;19.096;2024-02-15T07:33:30;7.20;99.90
43185;DHT22;28803;52.308;19.096;2024-02-15T07:35:57;7.30;99.90
43185;DHT22;28803;52.308;19.096;2024-02-15T07:38:24;7.30;99.90
43185;DHT22;28803;52.308;19.096;2024-02-15T07:40:52;7.40;99.90
43185;DHT22;28803;52.308;19.096;2024-02-15T07:43:19;7.40;99.90
43185;DHT22;28803;52.308;19.096;2024-02-15T07:45:47;7.50;99.90
43185;DHT22;28803;52.308;19.096;2024-02-15T07:48:16;7.50;99.90
43185;DHT22;28803;52.308;19.096;2024-02-15T07:50:44;7.50;99.90
43185;DHT22;28803;52.308;19.096;2024-02-15T07:53:12;7.60;99.90
43185;DHT22;28803;52.308;19.096;2024-02-15T07:55:40;7.70;99.90
43185;DHT22;28803;52.308;19.096;2024-02-15T07:58:09;7.70;99.90
43185;DHT22;28803;52.308;19.096;2024-02-15T08:00:36;7.70;99.90
43185;DHT22;28803;52.308;19.096;2024-02-15T08:03:05;7.70;99.90
43185;DHT22;28803;52.308;19.096;2024-02-15T08:05:33;7.70;99.90
43185;DHT22;28803;52.308;19.096;2024-02-15T08:08:00;7.70;99.90
43185;DHT22;28803;52.308;19.096;2024-02-15T08:10:28;7.70;99.90
43185;DHT22;28803;52.308;19.096;2024-02-15T08:12:56;7.70;99.90
43185;DHT22;28803;52.308;19.096;2024-02-15T08:15:25;7.80;99.90
43185;DHT22;28803;52.308;19.096;2024-02-15T08:17:55;7.90;99.90
43185;DHT22;28803;52.308;19.096;2024-02-15T08:20:23;8.00;99.90
43185;DHT22;28803;52.308;19.096;2024-02-15T08:22:51;8.00;99.90
43185;DHT22;28803;52.308;19.096;2024-02-15T08:25:18;8.10;99.90
43185;DHT22;28803;52.308;19.096;2024-02-15T08:27:49;8.20;99.90
43185;DHT22;28803;52.308;19.096;2024-02-15T08:30:19;8.40;99.90
43185;DHT22;28803;52.308;19.096;2024-02-15T08:32:51;8.60;99.90
43185;DHT22;28803;52.308;19.096;2024-02-15T08:35:20;8.70;99.90
43185;DHT22;28803;52.308;19.096;2024-02-15T08:37:48;8.70;99.90
43185;DHT22;28803;52.308;19.096;2024-02-15T08:40:17;8.70;99.90
43185;DHT22;28803;52.308;19.096;2024-02-15T08:42:46;8.80;99.90
43185;DHT22;28803;52.308;19.096;2024-02-15T08:45:14;8.70;99.50
43185;DHT22;28803;52.308;19.096;2024-02-15T08:47:43;8.70;93.30
43185;DHT22;28803;52.308;19.096;2024-02-15T08:50:11;8.80;90.00
43185;DHT22;28803;52.308;19.096;2024-02-15T08:52:40;8.80;77.30
43185;DHT22;28803;52.308;19.096;2024-02-15T08:55:08;8.80;68.10
43185;DHT22;28803;52.308;19.096;2024-02-15T08:57:37;8.90;63.40
43185;DHT22;28803;52.308;19.096;2024-02-15T09:00:08;8.80;44.30
43185;DHT22;28803;52.308;19.096;2024-02-15T09:02:50;8.80;32.90
43185;DHT22;28803;52.308;19.096;2024-02-15T09:05:18;8.80;24.00
43185;DHT22;28803;52.308;19.096;2024-02-15T09:07:46;8.90;24.60
43185;DHT22;28803;52.308;19.096;2024-02-15T09:10:18;8.90;25.20
43185;DHT22;28803;52.308;19.096;2024-02-15T09:12:46;9.00;39.60
43185;DHT22;28803;52.308;19.096;2024-02-15T09:15:17;9.20;38.60
43185;DHT22;28803;52.308;19.096;2024-02-15T09:17:45;9.30;18.90
43185;DHT22;28803;52.308;19.096;2024-02-15T09:20:15;9.30;1.00
43185;DHT22;28803;52.308;19.096;2024-02-15T09:22:50;9.30;1.00
43185;DHT22;28803;52.308;19.096;2024-02-15T09:25:19;9.30;1.00
43185;DHT22;28803;52.308;19.096;2024-02-15T09:27:46;9.50;16.50
43185;DHT22;28803;52.308;19.096;2024-02-15T09:30:14;9.80;25.30
43185;DHT22;28803;52.308;19.096;2024-02-15T09:32:43;10.10;7.10
43185;DHT22;28803;52.308;19.096;2024-02-15T09:35:12;10.30;1.00
43185;DHT22;28803;52.308;19.096;2024-02-15T09:37:47;10.80;1.00
43185;DHT22;28803;52.308;19.096;2024-02-15T09:40:17;11.10;1.00
43185;DHT22;28803;52.308;19.096;2024-02-15T09:42:47;11.10;1.00
43185;DHT22;28803;52.308;19.096;2024-02-15T09:45:15;11.10;1.00
43185;DHT22;28803;52.308;19.096;2024-02-15T09:47:44;10.90;1.00
43185;DHT22;28803;52.308;19.096;2024-02-15T09:50:14;10.70;1.00
43185;DHT22;28803;52.308;19.096;2024-02-15T09:52:51;10.60;1.00
43185;DHT22;28803;52.308;19.096;2024-02-15T09:55:20;10.50;1.00
43185;DHT22;28803;52.308;19.096;2024-02-15T09:57:51;10.40;1.00
43185;DHT22;28803;52.308;19.096;2024-02-15T10:00:18;10.40;1.00
43185;DHT22;28803;52.308;19.096;2024-02-15T10:02:53;10.40;1.00
43185;DHT22;28803;52.308;19.096;2024-02-15T10:05:21;10.60;1.00
43185;DHT22;28803;52.308;19.096;2024-02-15T10:07:48;10.90;1.00
43185;DHT22;28803;52.308;19.096;2024-02-15T10:10:21;11.00;1.00
43185;DHT22;28803;52.308;19.096;2024-02-15T10:12:49;11.00;1.00
43185;DHT22;28803;52.308;19.096;2024-02-15T10:15:31;11.00;1.00
43185;DHT22;28803;52.308;19.096;2024-02-15T10:18:02;11.00;99.90
43185;DHT22;28803;52.308;19.096;2024-02-15T10:20:30;10.90;99.90
43185;DHT22;28803;52.308;19.096;2024-02-15T10:25:29;10.80;99.90
43185;DHT22;28803;52.308;19.096;2024-02-15T10:28:03;10.80;99.90
43185;DHT22;28803;52.308;19.096;2024-02-15T10:30:39;10.90;99.90
43185;DHT22;28803;52.308;19.096;2024-02-15T10:33:07;10.90;99.90
43185;DHT22;28803;52.308;19.096;2024-02-15T10:35:35;10.90;99.90
43185;DHT22;28803;52.308;19.096;2024-02-15T10:38:09;11.00;99.90
43185;DHT22;28803;52.308;19.096;2024-02-15T10:40:38;11.00;99.90
43185;DHT22;28803;52.308;19.096;2024-02-15T10:43:09;11.10;99.90
43185;DHT22;28803;52.308;19.096;2024-02-15T10:45:40;11.10;99.90
43185;DHT22;28803;52.308;19.096;2024-02-15T10:48:11;11.10;99.90
43185;DHT22;28803;52.308;19.096;2024-02-15T10:50:40;11.20;99.90
43185;DHT22;28803;52.308;19.096;2024-02-15T10:53:21;11.40;99.90
43185;DHT22;28803;52.308;19.096;2024-02-15T10:58:32;12.40;99.90
43185;DHT22;28803;52.308;19.096;2024-02-15T11:01:06;12.60;99.90
43185;DHT22;28803;52.308;19.096;2024-02-15T11:03:43;12.60;99.90
43185;DHT22;28803;52.308;19.096;2024-02-15T11:06:16;12.80;99.90
43185;DHT22;28803;52.308;19.096;2024-02-15T11:08:44;12.80;99.90
43185;DHT22;28803;52.308;19.096;2024-02-15T11:11:12;12.70;99.90
43185;DHT22;28803;52.308;19.096;2024-02-15T11:13:42;12.60;99.90
43185;DHT22;28803;52.308;19.096;2024-02-15T11:16:10;12.60;99.90
43185;DHT22;28803;52.308;19.096;2024-02-15T11:18:48;12.50;99.90
43185;DHT22;28803;52.308;19.096;2024-02-15T11:21:17;12.40;99.90
43185;DHT22;28803;52.308;19.096;2024-02-15T11:23:45;12.30;99.90
43185;DHT22;28803;52.308;19.096;2024-02-15T11:26:45;12.30;99.90
43185;DHT22;28803;52.308;19.096;2024-02-15T11:29:56;12.30;99.90
43185;DHT22;28803;52.308;19.096;2024-02-15T11:32:44;12.40;99.90
43185;DHT22;28803;52.308;19.096;2024-02-15T11:37:55;12.70;99.90
43185;DHT22;28803;52.308;19.096;2024-02-15T11:40:27;12.80;99.90
43185;DHT22;28803;52.308;19.096;2024-02-15T11:42:57;12.90;99.90
43185;DHT22;28803;52.308;19.096;2024-02-15T11:45:29;13.00;99.90
43185;DHT22;28803;52.308;19.096;2024-02-15T11:48:13;13.20;1.00
43185;DHT22;28803;52.308;19.096;2024-02-15T11:50:41;13.20;1.00
43185;DHT22;28803;52.308;19.096;2024-02-15T11:53:11;13.10;1.00
43185;DHT22;28803;52.308;19.096;2024-02-15T11:55:40;13.00;1.00
43185;DHT22;28803;52.308;19.096;2024-02-15T11:58:09;12.80;1.00
43185;DHT22;28803;52.308;19.096;2024-02-15T12:00:39;12.70;1.00
43185;DHT22;28803;52.308;19.096;2024-02-15T12:03:26;12.70;1.00
43185;DHT22;28803;52.308;19.096;2024-02-15T12:06:30;12.70;99.90
43185;DHT22;28803;52.308;19.096;2024-02-15T12:09:18;12.60;1.00
43185;DHT22;28803;52.308;19.096;2024-02-15T12:12:05;12.50;99.90
43185;DHT22;28803;52.308;19.096;2024-02-15T12:15:01;12.50;99.90
43185;DHT22;28803;52.308;19.096;2024-02-15T12:17:48;12.60;99.90
43185;DHT22;28803;52.308;19.096;2024-02-15T12:20:34;12.60;99.90
43185;DHT22;28803;52.308;19.096;2024-02-15T12:23:03;12.70;99.90
43185;DHT22;28803;52.308;19.096;2024-02-15T12:25:35;12.80;99.90
43185;DHT22;28803;52.308;19.096;2024-02-15T12:28:03;12.90;99.90
43185;DHT22;28803;52.308;19.096;2024-02-15T12:30:33;13.10;99.90
43185;DHT22;28803;52.308;19.096;2024-02-15T12:33:12;13.10;99.90
43185;DHT22;28803;52.308;19.096;2024-02-15T12:35:41;13.20;99.90
43185;DHT22;28803;52.308;19.096;2024-02-15T12:38:12;13.20;99.90
43185;DHT22;28803;52.308;19.096;2024-02-15T12:40:43;13.20;99.90
43185;DHT22;28803;52.308;19.096;2024-02-15T12:43:15;13.20;99.90
43185;DHT22;28803;52.308;19.096;2024-02-15T12:45:43;13.20;99.90
43185;DHT22;28803;52.308;19.096;2024-02-15T12:48:10;13.30;99.90
43185;DHT22;28803;52.308;19.096;2024-02-15T12:50:38;13.40;99.90
43185;DHT22;28803;52.308;19.096;2024-02-15T12:53:06;13.60;99.90
43185;DHT22;28803;52.308;19.096;2024-02-15T12:55:36;13.60;99.90
43185;DHT22;28803;52.308;19.096;2024-02-15T12:58:12;13.60;99.90
43185;DHT22;28803;52.308;19.096;2024-02-15T13:00:43;13.60;99.90
43185;DHT22;28803;52.308;19.096;2024-02-15T13:03:12;13.70;99.90
43185;DHT22;28803;52.308;19.096;2024-02-15T13:05:41;13.60;99.90
43185;DHT22;28803;52.308;19.096;2024-02-15T13:08:09;13.60;99.90
43185;DHT22;28803;52.308;19.096;2024-02-15T13:10:44;13.50;99.90
43185;DHT22;28803;52.308;19.096;2024-02-15T13:13:13;13.40;99.90
43185;DHT22;28803;52.308;19.096;2024-02-15T13:15:44;13.40;99.90
43185;DHT22;28803;52.308;19.096;2024-02-15T13:18:13;13.40;99.90
43185;DHT22;28803;52.308;19.096;2024-02-15T13:20:42;13.30;99.90
43185;DHT22;28803;52.308;19.096;2024-02-15T13:23:11;13.20;99.90
43185;DHT22;28803;52.308;19.096;2024-02-15T13:25:53;13.20;99.90
43185;DHT22;28803;52.308;19.096;2024-02-15T13:28:24;13.20;99.90
43185;DHT22;28803;52.308;19.096;2024-02-15T13:30:52;13.20;99.90
43185;DHT22;28803;52.308;19.096;2024-02-15T13:33:22;13.10;99.90
43185;DHT22;28803;52.308;19.096;2024-02-15T13:35:49;13.10;99.90
43185;DHT22;28803;52.308;19.096;2024-02-15T13:38:17;13.00;99.90
43185;DHT22;28803;52.308;19.096;2024-02-15T13:40:51;13.00;99.90
43185;DHT22;28803;52.308;19.096;2024-02-15T13:43:19;13.20;99.90
43185;DHT22;28803;52.308;19.096;2024-02-15T13:45:46;13.20;99.90
43185;DHT22;28803;52.308;19.096;2024-02-15T13:48:18;13.20;99.90
43185;DHT22;28803;52.308;19.096;2024-02-15T13:50:46;13.00;99.90
43185;DHT22;28803;52.308;19.096;2024-02-15T13:53:15;13.00;99.90
43185;DHT22;28803;52.308;19.096;2024-02-15T13:55:42;12.90;99.90
43185;DHT22;28803;52.308;19.096;2024-02-15T13:58:10;12.90;99.90
43185;DHT22;28803;52.308;19.096;2024-02-15T14:00:41;12.90;99.90
43185;DHT22;28803;52.308;19.096;2024-02-15T14:03:11;12.90;99.90
43185;DHT22;28803;52.308;19.096;2024-02-15T14:05:40;12.90;99.90
43185;DHT22;28803;52.308;19.096;2024-02-15T14:08:10;12.90;99.90
43185;DHT22;28803;52.308;19.096;2024-02-15T14:10:38;12.90;99.90
43185;DHT22;28803;52.308;19.096;2024-02-15T14:13:06;12.90;99.90
43185;DHT22;28803;52.308;19.096;2024-02-15T14:15:35;12.90;99.90
43185;DHT22;28803;52.308;19.096;2024-02-15T14:18:07;12.80;99.90
43185;DHT22;28803;52.308;19.096;2024-02-15T14:20:38;12.70;99.90
43185;DHT22;28803;52.308;19.096;2024-02-15T14:23:06;12.60;99.90
43185;DHT22;28803;52.308;19.096;2024-02-15T14:25:33;12.50;99.90
43185;DHT22;28803;52.308;19.096;2024-02-15T14:28:02;12.40;99.90
43185;DHT22;28803;52.308;19.096;2024-02-15T14:30:30;12.30;99.90
43185;DHT22;28803;52.308;19.096;2024-02-15T14:33:16;12.30;99.90
43185;DHT22;28803;52.308;19.096;2024-02-15T14:35:49;12.20;99.90
43185;DHT22;28803;52.308;19.096;2024-02-15T14:38:17;12.20;99.90
43185;DHT22;28803;52.308;19.096;2024-02-15T14:40:48;12.20;99.90
43185;DHT22;28803;52.308;19.096;2024-02-15T14:43:30;12.00;99.90
43185;DHT22;28803;52.308;19.096;2024-02-15T14:45:57;11.90;99.90
43185;DHT22;28803;52.308;19.096;2024-02-15T14:48:26;11.80;99.90
43185;DHT22;28803;52.308;19.096;2024-02-15T14:51:07;11.70;99.90
43185;DHT22;28803;52.308;19.096;2024-02-15T14:53:36;11.60;99.90
43185;DHT22;28803;52.308;19.096;2024-02-15T14:56:04;11.60;99.90
43185;DHT22;28803;52.308;19.096;2024-02-15T14:58:33;11.60;99.90
43185;DHT22;28803;52.308;19.096;2024-02-15T15:01:00;11.60;99.90
43185;DHT22;28803;52.308;19.096;2024-02-15T15:03:34;11.60;99.90
43185;DHT22;28803;52.308;19.096;2024-02-15T15:06:07;11.60;99.90
43185;DHT22;28803;52.308;19.096;2024-02-15T15:08:53;11.60;99.90
43185;DHT22;28803;52.308;19.096;2024-02-15T15:11:42;11.50;99.90
43185;DHT22;28803;52.308;19.096;2024-02-15T15:14:28;11.50;99.90
43185;DHT22;28803;52.308;19.096;2024-02-15T15:16:55;11.40;99.90
43185;DHT22;28803;52.308;19.096;2024-02-15T15:19:23;11.30;99.90
43185;DHT22;28803;52.308;19.096;2024-02-15T15:21:50;11.20;99.90
43185;DHT22;28803;52.308;19.096;2024-02-15T15:24:18;11.20;99.90
43185;DHT22;28803;52.308;19.096;2024-02-15T15:26:45;11.20;99.90
43185;DHT22;28803;52.308;19.096;2024-02-15T15:29:12;11.10;99.90
43185;DHT22;28803;52.308;19.096;2024-02-15T15:31:41;11.00;99.90
43185;DHT22;28803;52.308;19.096;2024-02-15T15:34:08;11.00;99.90
43185;DHT22;28803;52.308;19.096;2024-02-15T15:36:37;10.90;99.90
43185;DHT22;28803;52.308;19.096;2024-02-15T15:39:04;10.80;99.90
43185;DHT22;28803;52.308;19.096;2024-02-15T15:41:36;10.80;99.90
43185;DHT22;28803;52.308;19.096;2024-02-15T15:44:05;10.80;99.90
43185;DHT22;28803;52.308;19.096;2024-02-15T15:46:32;10.70;99.90
43185;DHT22;28803;52.308;19.096;2024-02-15T15:49:00;10.60;99.90
43185;DHT22;28803;52.308;19.096;2024-02-15T15:51:28;10.60;99.90
43185;DHT22;28803;52.308;19.096;2024-02-15T15:53:56;10.60;99.90
43185;DHT22;28803;52.308;19.096;2024-02-15T15:56:23;10.70;99.90
43185;DHT22;28803;52.308;19.096;2024-02-15T15:58:50;10.60;99.90